sensor_id;sensor_type;location;lat;lon;timestamp;pressure;altitude;pressure_sealevel;temperature;humidity
69780;BME280;57052;55.602;38.096;2022-12-31T00:00:57;99838.66;;;4.39;76.82
69780;BME280;57052;55.602;38.096;2022-12-31T00:03:23;99823.53;;;4.33;76.77
69780;BME280;57052;55.602;38.096;2022-12-31T00:05:49;99836.78;;;4.39;76.83
69780;BME280;57052;55.602;38.096;2022-12-31T00:08:15;99828.75;;;4.39;76.84
69780;BME280;57052;55.602;38.096;2022-12-31T00:10:41;99818.41;;;4.31;76.95
69780;BME280;57052;55.602;38.096;2022-12-31T00:13:10;99825.25;;;4.39;76.61
69780;BME280;57052;55.602;38.096;2022-12-31T00:15:37;99824.44;;;4.38;76.98
69780;BME280;57052;55.602;38.096;2022-12-31T00:18:03;99828.50;;;4.41;76.50
69780;BME280;57052;55.602;38.096;2022-12-31T00:20:28;99830.13;;;4.42;76.91
69780;BME280;57052;55.602;38.096;2022-12-31T00:22:54;99830.38;;;4.40;76.65
69780;BME280;57052;55.602;38.096;2022-12-31T00:25:20;99825.03;;;4.40;77.03
69780;BME280;57052;55.602;38.096;2022-12-31T00:27:45;99822.34;;;4.40;76.65
69780;BME280;57052;55.602;38.096;2022-12-31T00:30:12;99804.53;;;4.34;76.49
69780;BME280;57052;55.602;38.096;2022-12-31T00:32:37;99812.19;;;4.42;76.50
69780;BME280;57052;55.602;38.096;2022-12-31T00:35:03;99806.19;;;4.35;76.79
69780;BME280;57052;55.602;38.096;2022-12-31T00:37:29;99810.56;;;4.41;76.63
69780;BME280;57052;55.602;38.096;2022-12-31T00:39:55;99812.09;;;4.37;76.56
69780;BME280;57052;55.602;38.096;2022-12-31T00:42:20;99812.09;;;4.37;76.91
69780;BME280;57052;55.602;38.096;2022-12-31T00:44:46;99818.03;;;4.39;76.39
69780;BME280;57052;55.602;38.096;2022-12-31T00:47:11;99804.78;;;4.33;76.31
69780;BME280;57052;55.602;38.096;2022-12-31T00:49:37;99816.38;;;4.38;76.38
69780;BME280;57052;55.602;38.096;2022-12-31T00:52:03;99806.97;;;4.36;76.50
69780;BME280;57052;55.602;38.096;2022-12-31T00:54:29;99793.97;;;4.28;76.74
69780;BME280;57052;55.602;38.096;2022-12-31T00:56:54;99805.56;;;4.33;76.48
69780;BME280;57052;55.602;38.096;2022-12-31T00:59:20;99801.84;;;4.34;76.36
69780;BME280;57052;55.602;38.096;2022-12-31T01:01:46;99803.72;;;4.34;76.25
69780;BME280;57052;55.602;38.096;2022-12-31T01:04:15;99799.06;;;4.29;76.66
69780;BME280;57052;55.602;38.096;2022-12-31T01:06:41;99806.66;;;4.32;76.06
69780;BME280;57052;55.602;38.096;2022-12-31T01:09:08;99806.88;;;4.31;75.98
69780;BME280;57052;55.602;38.096;2022-12-31T01:11:34;99810.63;;;4.30;75.93
69780;BME280;57052;55.602;38.096;2022-12-31T01:14:12;99811.56;;;4.24;75.97
69780;BME280;57052;55.602;38.096;2022-12-31T01:19:08;99801.94;;;4.11;76.06
69780;BME280;57052;55.602;38.096;2022-12-31T01:21:36;99808.69;;;4.14;76.29
69780;BME280;57052;55.602;38.096;2022-12-31T01:24:03;99803.22;;;4.09;75.76
69780;BME280;57052;55.602;38.096;2022-12-31T01:26:28;99799.88;;;4.02;76.33
69780;BME280;57052;55.602;38.096;2022-12-31T01:28:54;99814.75;;;4.09;75.99
69780;BME280;57052;55.602;38.096;2022-12-31T01:31:21;99817.69;;;4.08;75.94
69780;BME280;57052;55.602;38.096;2022-12-31T01:33:47;99808.00;;;4.07;75.57
69780;BME280;57052;55.602;38.096;2022-12-31T01:36:19;99811.16;;;4.04;75.98
69780;BME280;57052;55.602;38.096;2022-12-31T01:38:45;99804.09;;;3.98;75.90
69780;BME280;57052;55.602;38.096;2022-12-31T01:41:16;99814.34;;;4.01;75.68
69780;BME280;57052;55.602;38.096;2022-12-31T01:46:23;99807.59;;;3.98;75.58
69780;BME280;57052;55.602;38.096;2022-12-31T01:48:52;99787.00;;;3.87;76.09
69780;BME280;57052;55.602;38.096;2022-12-31T01:51:21;99801.41;;;3.98;75.41
69780;BME280;57052;55.602;38.096;2022-12-31T01:53:49;99810.47;;;3.97;76.04
69780;BME280;57052;55.602;38.096;2022-12-31T01:56:17;99801.63;;;3.96;75.50
69780;BME280;57052;55.602;38.096;2022-12-31T01:58:46;99794.31;;;3.92;76.02
69780;BME280;57052;55.602;38.096;2022-12-31T02:01:18;99801.63;;;3.96;75.89
69780;BME280;57052;55.602;38.096;2022-12-31T02:03:46;99798.94;;;3.96;76.01
69780;BME280;57052;55.602;38.096;2022-12-31T02:06:21;99800.03;;;3.95;75.55
69780;BME280;57052;55.602;38.096;2022-12-31T02:08:47;99790.59;;;3.93;75.77
69780;BME280;57052;55.602;38.096;2022-12-31T02:13:50;99798.72;;;3.98;75.34
69780;BME280;57052;55.602;38.096;2022-12-31T02:19:40;99802.13;;;3.93;75.74
69780;BME280;57052;55.602;38.096;2022-12-31T02:30:31;99785.59;;;3.84;75.40
69780;BME280;57052;55.602;38.096;2022-12-31T02:33:06;99799.66;;;3.92;75.88
69780;BME280;57052;55.602;38.096;2022-12-31T02:38:15;99798.06;;;3.91;75.26
69780;BME280;57052;55.602;38.096;2022-12-31T02:40:42;99802.91;;;3.94;75.59
69780;BME280;57052;55.602;38.096;2022-12-31T02:43:08;99798.94;;;3.96;75.45
69780;BME280;57052;55.602;38.096;2022-12-31T02:45:37;99798.72;;;3.98;75.43
69780;BME280;57052;55.602;38.096;2022-12-31T02:56:22;99795.47;;;3.96;75.68
69780;BME280;57052;55.602;38.096;2022-12-31T03:01:43;99807.81;;;3.97;75.00
69780;BME280;57052;55.602;38.096;2022-12-31T03:04:31;99803.50;;;3.96;75.12
69780;BME280;57052;55.602;38.096;2022-12-31T03:07:09;99803.97;;;3.93;75.46
69780;BME280;57052;55.602;38.096;2022-12-31T03:09:36;99796.53;;;3.95;75.14
69780;BME280;57052;55.602;38.096;2022-12-31T03:12:04;99800.84;;;3.96;75.65
69780;BME280;57052;55.602;38.096;2022-12-31T03:14:49;99773.84;;;3.85;75.52
69780;BME280;57052;55.602;38.096;2022-12-31T03:17:15;99789.31;;;3.95;75.82
69780;BME280;57052;55.602;38.096;2022-12-31T03:19:40;99790.13;;;3.96;74.88
69780;BME280;57052;55.602;38.096;2022-12-31T03:22:24;99756.78;;;3.75;75.55
69780;BME280;57052;55.602;38.096;2022-12-31T03:24:59;99799.78;;;3.97;74.92
69780;BME280;57052;55.602;38.096;2022-12-31T03:27:44;99806.19;;;3.96;75.13
69780;BME280;57052;55.602;38.096;2022-12-31T03:30:12;99810.72;;;3.95;75.46
69780;BME280;57052;55.602;38.096;2022-12-31T03:32:38;99804.56;;;3.95;75.40
69780;BME280;57052;55.602;38.096;2022-12-31T03:35:05;99797.34;;;3.95;75.13
69780;BME280;57052;55.602;38.096;2022-12-31T03:37:31;99790.13;;;3.96;75.60
69780;BME280;57052;55.602;38.096;2022-12-31T03:39:56;99786.75;;;3.88;74.99
69780;BME280;57052;55.602;38.096;2022-12-31T03:42:22;99801.88;;;3.95;75.06
69780;BME280;57052;55.602;38.096;2022-12-31T03:44:48;99799.09;;;3.89;75.24
69780;BME280;57052;55.602;38.096;2022-12-31T03:47:13;99808.50;;;3.92;75.02
69780;BME280;57052;55.602;38.096;2022-12-31T03:49:39;99805.03;;;3.92;75.13
69780;BME280;57052;55.602;38.096;2022-12-31T03:52:04;99804.81;;;3.93;74.77
69780;BME280;57052;55.602;38.096;2022-12-31T03:54:31;99810.94;;;3.94;75.48
69780;BME280;57052;55.602;38.096;2022-12-31T03:56:57;99805.59;;;3.94;75.44
69780;BME280;57052;55.602;38.096;2022-12-31T03:59:22;99805.03;;;3.92;74.95
69780;BME280;57052;55.602;38.096;2022-12-31T04:01:48;99809.81;;;3.89;74.81
69780;BME280;57052;55.602;38.096;2022-12-31T04:04:13;99796.16;;;3.91;75.07
69780;BME280;57052;55.602;38.096;2022-12-31T04:06:39;99784.22;;;3.82;74.91
69780;BME280;57052;55.602;38.096;2022-12-31T04:09:04;99808.25;;;3.94;74.88
69780;BME280;57052;55.602;38.096;2022-12-31T04:11:30;99797.69;;;3.87;75.39
69780;BME280;57052;55.602;38.096;2022-12-31T04:13:55;99816.78;;;3.91;75.50
69780;BME280;57052;55.602;38.096;2022-12-31T04:16:23;99806.09;;;3.91;75.40
69780;BME280;57052;55.602;38.096;2022-12-31T04:18:49;99818.66;;;3.90;75.33
69780;BME280;57052;55.602;38.096;2022-12-31T04:21:15;99815.72;;;3.92;75.33
69780;BME280;57052;55.602;38.096;2022-12-31T04:23:40;99810.63;;;3.90;74.80
69780;BME280;57052;55.602;38.096;2022-12-31T04:26:06;99820.25;;;3.91;75.04
69780;BME280;57052;55.602;38.096;2022-12-31T04:28:31;99820.25;;;3.91;75.37
69780;BME280;57052;55.602;38.096;2022-12-31T04:30:57;99825.63;;;3.91;75.55
69780;BME280;57052;55.602;38.096;2022-12-31T04:33:23;99825.63;;;3.91;75.55
69780;BME280;57052;55.602;38.096;2022-12-31T04:35:48;99820.75;;;3.88;75.44
69780;BME280;57052;55.602;38.096;2022-12-31T04:38:14;99829.59;;;3.88;75.31
69780;BME280;57052;55.602;38.096;2022-12-31T04:40:39;99836.31;;;3.91;74.99
69780;BME280;57052;55.602;38.096;2022-12-31T04:43:25;99839.00;;;3.91;75.76
69780;BME280;57052;55.602;38.096;2022-12-31T04:45:50;99838.22;;;3.91;75.47
69780;BME280;57052;55.602;38.096;2022-12-31T04:48:16;99835.53;;;3.91;75.54
69780;BME280;57052;55.602;38.096;2022-12-31T04:50:45;99834.47;;;3.92;75.67
69780;BME280;57052;55.602;38.096;2022-12-31T04:53:10;99833.44;;;3.93;75.09
69780;BME280;57052;55.602;38.096;2022-12-31T04:55:36;99828.06;;;3.93;75.74
69780;BME280;57052;55.602;38.096;2022-12-31T04:58:01;99834.25;;;3.93;75.40
69780;BME280;57052;55.602;38.096;2022-12-31T05:00:27;99837.41;;;3.90;75.31
69780;BME280;57052;55.602;38.096;2022-12-31T05:02:52;99823.66;;;3.86;74.83
69780;BME280;57052;55.602;38.096;2022-12-31T05:05:18;99839.38;;;3.95;75.05
69780;BME280;57052;55.602;38.096;2022-12-31T05:07:43;99843.91;;;3.94;75.48
69780;BME280;57052;55.602;38.096;2022-12-31T05:10:12;99841.34;;;3.87;74.80
69780;BME280;57052;55.602;38.096;2022-12-31T05:12:38;99850.88;;;3.95;75.33
69780;BME280;57052;55.602;38.096;2022-12-31T05:15:04;99853.56;;;3.95;75.02
69780;BME280;57052;55.602;38.096;2022-12-31T05:17:30;99858.09;;;3.95;75.40
69780;BME280;57052;55.602;38.096;2022-12-31T05:19:56;99870.44;;;3.96;75.31
69780;BME280;57052;55.602;38.096;2022-12-31T05:22:21;99870.91;;;3.93;75.22
69780;BME280;57052;55.602;38.096;2022-12-31T05:24:53;99875.81;;;3.96;75.44
69780;BME280;57052;55.602;38.096;2022-12-31T05:27:19;99886.41;;;3.91;75.16
69780;BME280;57052;55.602;38.096;2022-12-31T05:29:44;99838.13;;;3.62;75.51
69780;BME280;57052;55.602;38.096;2022-12-31T05:32:10;99891.41;;;3.87;75.08
69780;BME280;57052;55.602;38.096;2022-12-31T05:34:42;99896.19;;;3.85;75.70
69780;BME280;57052;55.602;38.096;2022-12-31T05:37:08;99877.31;;;3.68;75.61
69780;BME280;57052;55.602;38.096;2022-12-31T05:39:34;99907.47;;;3.75;75.99
69780;BME280;57052;55.602;38.096;2022-12-31T05:42:00;99895.94;;;3.63;75.43
69780;BME280;57052;55.602;38.096;2022-12-31T05:44:25;99911.53;;;3.66;75.95
69780;BME280;57052;55.602;38.096;2022-12-31T05:46:51;99921.09;;;3.62;75.94
69780;BME280;57052;55.602;38.096;2022-12-31T05:49:16;99913.53;;;3.59;75.78
69780;BME280;57052;55.602;38.096;2022-12-31T05:51:42;99928.06;;;3.63;75.50
69780;BME280;57052;55.602;38.096;2022-12-31T05:54:08;99932.13;;;3.66;75.81
69780;BME280;57052;55.602;38.096;2022-12-31T05:56:34;99938.75;;;3.63;76.23
69780;BME280;57052;55.602;38.096;2022-12-31T05:58:59;99957.03;;;3.66;75.85
69780;BME280;57052;55.602;38.096;2022-12-31T06:01:25;99956.22;;;3.66;76.09
69780;BME280;57052;55.602;38.096;2022-12-31T06:03:51;99955.19;;;3.67;75.72
69780;BME280;57052;55.602;38.096;2022-12-31T06:06:16;99959.59;;;3.61;76.09
69780;BME280;57052;55.602;38.096;2022-12-31T06:08:42;99949.69;;;3.50;76.05
69780;BME280;57052;55.602;38.096;2022-12-31T06:11:07;99962.97;;;3.57;76.47
69780;BME280;57052;55.602;38.096;2022-12-31T06:13:33;99953.88;;;3.46;76.01
69780;BME280;57052;55.602;38.096;2022-12-31T06:16:04;99959.34;;;3.51;76.24
69780;BME280;57052;55.602;38.096;2022-12-31T06:18:30;99967.94;;;3.53;76.05
69780;BME280;57052;55.602;38.096;2022-12-31T06:20:57;99978.91;;;3.63;75.90
69780;BME280;57052;55.602;38.096;2022-12-31T06:23:23;99974.94;;;3.66;76.25
69780;BME280;57052;55.602;38.096;2022-12-31T06:25:48;99981.69;;;3.68;75.73
69780;BME280;57052;55.602;38.096;2022-12-31T06:28:14;99994.06;;;3.69;76.04
69780;BME280;57052;55.602;38.096;2022-12-31T06:30:40;100001.84;;;3.71;75.52
69780;BME280;57052;55.602;38.096;2022-12-31T06:33:05;100006.59;;;3.69;75.67
69780;BME280;57052;55.602;38.096;2022-12-31T06:35:31;100026.63;;;3.66;75.98
69780;BME280;57052;55.602;38.096;2022-12-31T06:37:57;100012.41;;;3.66;75.74
69780;BME280;57052;55.602;38.096;2022-12-31T06:40:22;100022.47;;;3.70;76.31
69780;BME280;57052;55.602;38.096;2022-12-31T06:42:48;100025.94;;;3.71;75.83
69780;BME280;57052;55.602;38.096;2022-12-31T06:45:13;100030.50;;;3.70;75.75
69780;BME280;57052;55.602;38.096;2022-12-31T06:47:39;100024.53;;;3.68;75.69
69780;BME280;57052;55.602;38.096;2022-12-31T06:50:05;100018.13;;;3.69;75.73
69780;BME280;57052;55.602;38.096;2022-12-31T06:52:31;100044.91;;;3.81;75.92
69780;BME280;57052;55.602;38.096;2022-12-31T06:54:58;100042.47;;;3.79;75.77
69780;BME280;57052;55.602;38.096;2022-12-31T06:57:24;100050.88;;;3.83;75.32
69780;BME280;57052;55.602;38.096;2022-12-31T06:59:50;100049.00;;;3.83;75.90
69780;BME280;57052;55.602;38.096;2022-12-31T07:02:21;100048.78;;;3.85;75.88
69780;BME280;57052;55.602;38.096;2022-12-31T07:18:17;100063.22;;;3.84;75.97
69780;BME280;57052;55.602;38.096;2022-12-31T07:20:45;100048.16;;;3.71;75.44
69780;BME280;57052;55.602;38.096;2022-12-31T07:23:11;100051.78;;;3.65;75.51
69780;BME280;57052;55.602;38.096;2022-12-31T07:25:40;100084.16;;;3.75;76.14
69780;BME280;57052;55.602;38.096;2022-12-31T07:31:39;100095.31;;;3.72;75.96
69780;BME280;57052;55.602;38.096;2022-12-31T07:34:30;100095.91;;;3.74;76.36
69780;BME280;57052;55.602;38.096;2022-12-31T07:37:06;100102.91;;;3.75;76.40
69780;BME280;57052;55.602;38.096;2022-12-31T07:45:16;100103.41;;;3.66;75.92
69780;BME280;57052;55.602;38.096;2022-12-31T07:47:43;100123.25;;;3.76;75.79
69780;BME280;57052;55.602;38.096;2022-12-31T07:50:16;100132.22;;;3.70;76.59
69780;BME280;57052;55.602;38.096;2022-12-31T07:52:43;100129.06;;;3.73;75.70
69780;BME280;57052;55.602;38.096;2022-12-31T07:55:09;100118.31;;;3.62;75.98
69780;BME280;57052;55.602;38.096;2022-12-31T07:57:56;100126.34;;;3.62;76.48
69780;BME280;57052;55.602;38.096;2022-12-31T08:00:24;100127.50;;;3.66;76.09
69780;BME280;57052;55.602;38.096;2022-12-31T08:03:34;100127.31;;;3.67;76.44
69780;BME280;57052;55.602;38.096;2022-12-31T08:09:23;100149.28;;;3.69;76.46
69780;BME280;57052;55.602;38.096;2022-12-31T08:11:56;100143.69;;;3.71;76.40
69780;BME280;57052;55.602;38.096;2022-12-31T08:14:23;100134.88;;;3.70;76.72
69780;BME280;57052;55.602;38.096;2022-12-31T08:16:49;100142.94;;;3.82;76.33
69780;BME280;57052;55.602;38.096;2022-12-31T08:19:27;100144.31;;;3.73;76.55
69780;BME280;57052;55.602;38.096;2022-12-31T08:25:04;100144.94;;;3.86;76.07
69780;BME280;57052;55.602;38.096;2022-12-31T08:30:08;100151.00;;;3.94;76.37
69780;BME280;57052;55.602;38.096;2022-12-31T08:38:14;100138.63;;;3.81;76.38
69780;BME280;57052;55.602;38.096;2022-12-31T08:45:51;100147.44;;;4.11;75.90
69780;BME280;57052;55.602;38.096;2022-12-31T08:48:31;100146.78;;;4.16;75.71
69780;BME280;57052;55.602;38.096;2022-12-31T08:50:57;100143.84;;;4.17;75.55
69780;BME280;57052;55.602;38.096;2022-12-31T08:53:23;100138.75;;;4.16;75.54
69780;BME280;57052;55.602;38.096;2022-12-31T08:55:55;100160.88;;;4.23;75.80
69780;BME280;57052;55.602;38.096;2022-12-31T09:01:00;100153.31;;;4.20;75.28
69780;BME280;57052;55.602;38.096;2022-12-31T09:06:44;100180.94;;;4.32;75.72
69780;BME280;57052;55.602;38.096;2022-12-31T09:11:58;100194.56;;;4.30;75.13
69780;BME280;57052;55.602;38.096;2022-12-31T09:14:34;100193.75;;;4.30;75.31
69780;BME280;57052;55.602;38.096;2022-12-31T09:20:05;100191.06;;;4.30;75.63
69780;BME280;57052;55.602;38.096;2022-12-31T09:22:31;100196.41;;;4.30;75.01
69780;BME280;57052;55.602;38.096;2022-12-31T09:24:56;100176.97;;;4.23;75.42
69780;BME280;57052;55.602;38.096;2022-12-31T09:30:14;100186.88;;;4.34;75.55
69780;BME280;57052;55.602;38.096;2022-12-31T09:32:46;100184.56;;;4.37;75.43
69780;BME280;57052;55.602;38.096;2022-12-31T09:35:24;100193.41;;;4.38;75.06
69780;BME280;57052;55.602;38.096;2022-12-31T09:38:35;100202.72;;;4.35;75.54
69780;BME280;57052;55.602;38.096;2022-12-31T09:41:12;100205.03;;;4.32;74.98
69780;BME280;57052;55.602;38.096;2022-12-31T09:57:38;100224.28;;;4.40;75.30
69780;BME280;57052;55.602;38.096;2022-12-31T10:00:10;100234.09;;;4.46;75.19
69780;BME280;57052;55.602;38.096;2022-12-31T10:05:56;100241.66;;;4.49;75.56
69780;BME280;57052;55.602;38.096;2022-12-31T10:11:18;100238.75;;;4.51;74.95
69780;BME280;57052;55.602;38.096;2022-12-31T10:14:27;100224.63;;;4.44;75.47
69780;BME280;57052;55.602;38.096;2022-12-31T10:16:58;100241.31;;;4.46;75.99
69780;BME280;57052;55.602;38.096;2022-12-31T10:34:24;100276.88;;;4.53;75.39
69780;BME280;57052;55.602;38.096;2022-12-31T10:47:36;100302.41;;;4.56;75.78
69780;BME280;57052;55.602;38.096;2022-12-31T10:55:59;100309.06;;;4.53;75.21
69780;BME280;57052;55.602;38.096;2022-12-31T11:25:39;100305.25;;;4.72;75.91
69780;BME280;57052;55.602;38.096;2022-12-31T11:44:59;100365.66;;;4.86;75.58
69780;BME280;57052;55.602;38.096;2022-12-31T11:52:59;100362.06;;;4.81;76.19
69780;BME280;57052;55.602;38.096;2022-12-31T11:55:43;100373.13;;;4.84;75.66
69780;BME280;57052;55.602;38.096;2022-12-31T11:58:17;100375.59;;;4.86;75.72
69780;BME280;57052;55.602;38.096;2022-12-31T12:00:55;100381.03;;;4.79;76.09
69780;BME280;57052;55.602;38.096;2022-12-31T12:03:21;100389.31;;;4.78;75.66
69780;BME280;57052;55.602;38.096;2022-12-31T12:05:49;100388.63;;;4.82;76.30
69780;BME280;57052;55.602;38.096;2022-12-31T12:08:15;100392.97;;;4.83;76.11
69780;BME280;57052;55.602;38.096;2022-12-31T12:10:51;100402.06;;;4.82;75.93
69780;BME280;57052;55.602;38.096;2022-12-31T12:13:25;100408.16;;;4.71;76.24
69780;BME280;57052;55.602;38.096;2022-12-31T12:15:57;100398.72;;;4.69;75.84
69780;BME280;57052;55.602;38.096;2022-12-31T12:19:03;100408.72;;;4.62;76.48
69780;BME280;57052;55.602;38.096;2022-12-31T12:21:29;100405.13;;;4.68;76.36
69780;BME280;57052;55.602;38.096;2022-12-31T12:23:57;100386.09;;;4.58;76.10
69780;BME280;57052;55.602;38.096;2022-12-31T12:26:34;100406.84;;;4.62;76.45
69780;BME280;57052;55.602;38.096;2022-12-31T12:29:18;100412.22;;;4.62;76.27
69780;BME280;57052;55.602;38.096;2022-12-31T12:32:11;100413.94;;;4.57;76.79
69780;BME280;57052;55.602;38.096;2022-12-31T12:34:40;100403.44;;;4.55;76.08
69780;BME280;57052;55.602;38.096;2022-12-31T12:37:28;100423.25;;;4.54;76.36
69780;BME280;57052;55.602;38.096;2022-12-31T12:42:25;100437.03;;;4.58;76.08
69780;BME280;57052;55.602;38.096;2022-12-31T12:45:14;100431.69;;;4.39;76.27
69780;BME280;57052;55.602;38.096;2022-12-31T12:47:45;100430.31;;;4.48;76.22
69780;BME280;57052;55.602;38.096;2022-12-31T12:50:16;100445.81;;;4.46;76.73
69780;BME280;57052;55.602;38.096;2022-12-31T13:04:04;100445.75;;;4.35;76.93
69780;BME280;57052;55.602;38.096;2022-12-31T13:09:46;100451.25;;;4.40;76.26
69780;BME280;57052;55.602;38.096;2022-12-31T13:15:11;100461.25;;;4.33;76.74
69780;BME280;57052;55.602;38.096;2022-12-31T13:22:53;100450.81;;;4.25;76.42
69780;BME280;57052;55.602;38.096;2022-12-31T13:25:53;100453.94;;;4.22;76.92
69780;BME280;57052;55.602;38.096;2022-12-31T13:28:23;100439.19;;;4.13;76.21
69780;BME280;57052;55.602;38.096;2022-12-31T13:31:01;100423.78;;;3.90;76.02
69780;BME280;57052;55.602;38.096;2022-12-31T13:33:33;100461.16;;;4.03;76.59
69780;BME280;57052;55.602;38.096;2022-12-31T13:38:28;100451.84;;;4.06;77.10
69780;BME280;57052;55.602;38.096;2022-12-31T13:46:26;100465.56;;;4.16;76.84
69780;BME280;57052;55.602;38.096;2022-12-31T13:49:01;100470.28;;;4.14;76.68
69780;BME280;57052;55.602;38.096;2022-12-31T13:51:41;100473.34;;;4.17;77.09
69780;BME280;57052;55.602;38.096;2022-12-31T13:56:52;100465.63;;;4.27;76.94
69780;BME280;57052;55.602;38.096;2022-12-31T13:59:28;100468.53;;;4.26;76.18
69780;BME280;57052;55.602;38.096;2022-12-31T14:02:25;100465.47;;;4.22;76.36
69780;BME280;57052;55.602;38.096;2022-12-31T14:05:18;100456.91;;;4.14;76.28
69780;BME280;57052;55.602;38.096;2022-12-31T14:07:52;100451.84;;;4.24;76.63
69780;BME280;57052;55.602;38.096;2022-12-31T14:10:43;100440.38;;;4.17;76.95
69780;BME280;57052;55.602;38.096;2022-12-31T14:26:42;100471.34;;;4.13;76.74
69780;BME280;57052;55.602;38.096;2022-12-31T14:29:37;100478.31;;;4.14;77.03
69780;BME280;57052;55.602;38.096;2022-12-31T14:34:54;100485.06;;;4.23;76.58
69780;BME280;57052;55.602;38.096;2022-12-31T14:37:32;100478.63;;;4.24;76.84
69780;BME280;57052;55.602;38.096;2022-12-31T14:43:12;100477.16;;;4.28;76.90
69780;BME280;57052;55.602;38.096;2022-12-31T14:46:07;100476.59;;;4.26;76.32
69780;BME280;57052;55.602;38.096;2022-12-31T14:48:55;100470.75;;;4.29;76.75
69780;BME280;57052;55.602;38.096;2022-12-31T14:51:28;100467.88;;;4.30;76.67
69780;BME280;57052;55.602;38.096;2022-12-31T14:53:56;100470.31;;;4.32;76.78
69780;BME280;57052;55.602;38.096;2022-12-31T14:56:39;100473.66;;;4.27;76.06
69780;BME280;57052;55.602;38.096;2022-12-31T14:59:31;100473.44;;;4.29;76.26
69780;BME280;57052;55.602;38.096;2022-12-31T15:01:57;100464.38;;;4.30;75.73
69780;BME280;57052;55.602;38.096;2022-12-31T15:04:41;100462.88;;;4.34;76.45
69780;BME280;57052;55.602;38.096;2022-12-31T15:10:12;100464.88;;;4.38;75.38
69780;BME280;57052;55.602;38.096;2022-12-31T15:13:06;100458.31;;;4.34;76.09
69780;BME280;57052;55.602;38.096;2022-12-31T15:15:47;100460.56;;;4.37;75.64
69780;BME280;57052;55.602;38.096;2022-12-31T15:18:39;100468.66;;;4.31;75.90
69780;BME280;57052;55.602;38.096;2022-12-31T15:23:51;100474.50;;;4.28;75.62
69780;BME280;57052;55.602;38.096;2022-12-31T15:26:30;100470.00;;;4.22;75.42
69780;BME280;57052;55.602;38.096;2022-12-31T15:29:03;100478.19;;;4.27;75.59
69780;BME280;57052;55.602;38.096;2022-12-31T15:31:31;100470.25;;;4.20;75.67
69780;BME280;57052;55.602;38.096;2022-12-31T15:36:31;100460.63;;;4.13;75.49
69780;BME280;57052;55.602;38.096;2022-12-31T15:39:35;100472.38;;;4.12;74.91
69780;BME280;57052;55.602;38.096;2022-12-31T15:42:01;100466.59;;;4.15;75.25
69780;BME280;57052;55.602;38.096;2022-12-31T15:44:32;100474.03;;;4.13;75.23
69780;BME280;57052;55.602;38.096;2022-12-31T15:47:02;100482.94;;;4.07;74.92
69780;BME280;57052;55.602;38.096;2022-12-31T15:49:36;100488.56;;;3.99;75.52
69780;BME280;57052;55.602;38.096;2022-12-31T15:52:15;100480.19;;;3.95;75.19
69780;BME280;57052;55.602;38.096;2022-12-31T15:54:44;100470.50;;;3.94;75.33
69780;BME280;57052;55.602;38.096;2022-12-31T15:57:33;100478.53;;;3.94;75.23
69780;BME280;57052;55.602;38.096;2022-12-31T16:00:13;100480.34;;;4.00;75.03
69780;BME280;57052;55.602;38.096;2022-12-31T16:02:39;100470.22;;;4.02;75.84
69780;BME280;57052;55.602;38.096;2022-12-31T16:05:19;100473.91;;;4.01;75.00
69780;BME280;57052;55.602;38.096;2022-12-31T16:07:45;100471.41;;;4.06;75.18
69780;BME280;57052;55.602;38.096;2022-12-31T16:10:36;100459.94;;;3.99;75.33
69780;BME280;57052;55.602;38.096;2022-12-31T16:13:01;100474.03;;;4.13;75.35
69780;BME280;57052;55.602;38.096;2022-12-31T16:15:31;100466.44;;;4.10;75.36
69780;BME280;57052;55.602;38.096;2022-12-31T16:18:04;100462.66;;;4.17;75.56
69780;BME280;57052;55.602;38.096;2022-12-31T16:20:32;100471.50;;;4.18;75.60
69780;BME280;57052;55.602;38.096;2022-12-31T16:23:00;100483.41;;;4.22;75.72
69780;BME280;57052;55.602;38.096;2022-12-31T16:25:29;100485.06;;;4.23;75.02
69780;BME280;57052;55.602;38.096;2022-12-31T16:28:00;100476.78;;;4.24;74.43
69780;BME280;57052;55.602;38.096;2022-12-31T16:30:29;100482.81;;;4.20;74.91
69780;BME280;57052;55.602;38.096;2022-12-31T16:33:01;100487.19;;;4.14;75.13
69780;BME280;57052;55.602;38.096;2022-12-31T16:35:32;100458.31;;;3.98;74.86
69780;BME280;57052;55.602;38.096;2022-12-31T16:38:16;100479.66;;;4.05;74.95
69780;BME280;57052;55.602;38.096;2022-12-31T16:41:17;100480.69;;;4.04;75.26
69780;BME280;57052;55.602;38.096;2022-12-31T16:43:45;100467.78;;;4.01;75.01
69780;BME280;57052;55.602;38.096;2022-12-31T16:46:24;100480.25;;;4.07;74.96
69780;BME280;57052;55.602;38.096;2022-12-31T16:48:59;100476.13;;;4.11;75.56
69780;BME280;57052;55.602;38.096;2022-12-31T16:51:31;100470.28;;;4.14;74.82
69780;BME280;57052;55.602;38.096;2022-12-31T16:54:00;100443.81;;;4.06;75.03
69780;BME280;57052;55.602;38.096;2022-12-31T16:56:37;100463.91;;;4.15;75.25
69780;BME280;57052;55.602;38.096;2022-12-31T16:59:14;100447.75;;;4.03;75.01
69780;BME280;57052;55.602;38.096;2022-12-31T17:01:44;100459.66;;;4.07;75.05
69780;BME280;57052;55.602;38.096;2022-12-31T17:04:15;100462.25;;;4.14;75.34
69780;BME280;57052;55.602;38.096;2022-12-31T17:06:42;100460.63;;;4.13;75.34
69780;BME280;57052;55.602;38.096;2022-12-31T17:09:15;100475.06;;;4.12;74.84
69780;BME280;57052;55.602;38.096;2022-12-31T17:11:56;100464.41;;;4.05;75.28
69780;BME280;57052;55.602;38.096;2022-12-31T17:14:27;100460.91;;;4.05;75.80
69780;BME280;57052;55.602;38.096;2022-12-31T17:19:42;100459.06;;;4.05;75.67
69780;BME280;57052;55.602;38.096;2022-12-31T17:22:16;100450.28;;;3.98;75.37
69780;BME280;57052;55.602;38.096;2022-12-31T17:24:47;100461.94;;;4.04;75.40
69780;BME280;57052;55.602;38.096;2022-12-31T17:27:13;100459.09;;;3.99;75.45
69780;BME280;57052;55.602;38.096;2022-12-31T17:29:39;100455.00;;;3.96;75.49
69780;BME280;57052;55.602;38.096;2022-12-31T17:32:26;100454.22;;;3.96;76.25